createdAt,value
2023-01-03T00:05:03.007Z,100658.16
2023-01-03T00:10:24.850Z,100654.72
2023-01-03T00:15:46.837Z,100662.13
2023-01-03T00:21:08.863Z,100667.50
2023-01-03T00:26:30.857Z,100671.03
2023-01-03T00:31:52.773Z,100680.53
2023-01-03T00:37:15.012Z,100692.75
2023-01-03T00:42:36.890Z,100712.63
2023-01-03T00:47:58.742Z,100709.44
2023-01-03T00:53:21.165Z,100705.28
2023-01-03T00:58:43.204Z,100708.78
2023-01-03T01:04:10.648Z,100707.16
2023-01-03T01:09:36.087Z,100727.03
2023-01-03T01:14:57.924Z,100724.41
2023-01-03T01:20:19.772Z,100715.94
2023-01-03T01:25:41.634Z,100741.44
2023-01-03T01:31:05.003Z,100736.34
2023-01-03T01:36:29.905Z,100733.69
2023-01-03T01:41:55.867Z,100740.31
2023-01-03T01:47:48.644Z,100754.16
2023-01-03T01:53:14.936Z,100761.97
2023-01-03T01:58:38.820Z,100763.47
2023-01-03T02:04:07.051Z,100761.09
2023-01-03T02:09:28.949Z,100760.25
2023-01-03T02:15:07.764Z,100770.53
2023-01-03T02:20:47.494Z,100784.19
2023-01-03T02:26:33.266Z,100781.53
2023-01-03T02:32:30.746Z,100791.19
2023-01-03T02:38:04.769Z,100798.22
2023-01-03T02:43:53.723Z,100799.06
2023-01-03T02:49:38.455Z,100807.69
2023-01-03T02:55:11.526Z,100810.13
2023-01-03T03:00:38.486Z,100800.19
2023-01-03T03:06:26.274Z,100816.53
2023-01-03T03:11:48.755Z,100829.41
2023-01-03T03:17:19.862Z,100837.22
2023-01-03T03:22:54.184Z,100841.63
2023-01-03T03:28:21.061Z,100844.59
2023-01-03T03:33:51.796Z,100864.38
2023-01-03T03:39:15.412Z,100868.06
2023-01-03T03:44:39.799Z,100876.28
2023-01-03T03:50:10.905Z,100879.94
2023-01-03T03:55:42.033Z,100892.28
2023-01-03T04:01:05.247Z,100898.78
2023-01-03T04:06:33.789Z,100914.66
2023-01-03T04:11:55.725Z,100924.97
2023-01-03T04:17:17.567Z,100927.69
2023-01-03T04:22:39.430Z,100938.19
2023-01-03T04:28:01.251Z,100931.38
2023-01-03T04:33:23.073Z,100951.28
2023-01-03T04:38:45.201Z,100959.91
2023-01-03T04:44:07.181Z,100961.81
2023-01-03T04:49:28.993Z,100973.03
2023-01-03T04:54:50.916Z,100977.47
2023-01-03T05:00:13.491Z,100988.69
2023-01-03T05:05:37.437Z,100994.78
2023-01-03T05:10:59.289Z,100999.13
2023-01-03T05:16:21.174Z,101007.94
2023-01-03T05:21:43.162Z,101011.41
2023-01-03T05:27:05.955Z,101016.69
2023-01-03T05:32:27.808Z,101006.44
2023-01-03T05:37:53.092Z,101009.16
2023-01-03T05:43:14.956Z,101009.31
2023-01-03T05:48:36.793Z,101023.13
2023-01-03T05:53:58.650Z,101029.25
2023-01-03T05:59:20.477Z,101028.47
2023-01-03T06:04:42.374Z,101049.13
2023-01-03T06:10:05.803Z,101054.44
2023-01-03T06:15:27.704Z,101053.75
2023-01-03T06:20:49.576Z,101069.22
2023-01-03T06:26:11.753Z,101081.13
2023-01-03T06:31:33.667Z,101078.44
2023-01-03T06:36:55.571Z,101086.91
2023-01-03T06:42:17.392Z,101091.22
2023-01-03T06:47:39.610Z,101094.53
2023-01-03T06:53:01.492Z,101099.72
2023-01-03T06:58:23.452Z,101124.63
2023-01-03T07:03:45.281Z,101124.66
2023-01-03T07:09:08.080Z,101132.31
2023-01-03T07:14:29.907Z,101145.22
2023-01-03T07:19:51.830Z,101157.28
2023-01-03T07:25:13.705Z,101160.56
2023-01-03T07:30:39.975Z,101169.16
2023-01-03T07:36:11.545Z,101173.47
2023-01-03T07:41:33.990Z,101187.94
2023-01-03T07:46:55.901Z,101199.06
2023-01-03T07:52:17.937Z,101200.81
2023-01-03T07:57:39.835Z,101211.81
2023-01-03T08:03:01.857Z,101201.41
2023-01-03T08:08:23.770Z,101203.88
2023-01-03T08:13:46.220Z,101219.28
2023-01-03T08:19:08.116Z,101210.59
2023-01-03T08:24:30.066Z,101218.25
2023-01-03T08:29:51.909Z,101231.69
2023-01-03T08:35:14.269Z,101221.56
2023-01-03T08:40:41.945Z,101229.22
2023-01-03T08:46:08.697Z,101234.75
2023-01-03T08:51:30.599Z,101231.78
2023-01-03T08:56:52.537Z,101248.06
2023-01-03T09:02:14.569Z,101244.78
2023-01-03T09:07:36.544Z,101250.97
2023-01-03T09:12:58.449Z,101252.63
2023-01-03T09:18:20.469Z,101263.00
2023-01-03T09:23:42.325Z,101282.03
2023-01-03T09:29:04.205Z,101284.19
2023-01-03T09:34:26.043Z,101275.41
2023-01-03T09:39:47.926Z,101263.88
2023-01-03T09:45:17.911Z,101270.84
2023-01-03T09:51:15.847Z,101283.88
2023-01-03T09:56:24.146Z,101266.31
2023-01-03T10:02:16.065Z,101263.09
2023-01-03T10:08:03.925Z,101273.84
2023-01-03T10:13:33.057Z,101278.38
2023-01-03T10:19:16.503Z,101283.69
2023-01-03T10:24:54.960Z,101294.94
2023-01-03T10:30:32.596Z,101306.34
2023-01-03T10:35:54.449Z,101299.41
2023-01-03T10:41:31.476Z,101307.72
2023-01-03T10:46:56.763Z,101327.69
2023-01-03T10:52:20.562Z,101325.81
2023-01-03T10:57:58.281Z,101327.72
2023-01-03T11:03:23.229Z,101316.66
2023-01-03T11:08:47.963Z,101336.72
2023-01-03T11:14:09.819Z,101328.81
2023-01-03T11:19:33.847Z,101325.31
2023-01-03T11:25:16.568Z,101324.53
2023-01-03T11:30:38.359Z,101333.13
2023-01-03T11:36:28.473Z,101325.13
2023-01-03T11:42:28.597Z,101342.34
2023-01-03T11:47:56.127Z,101331.44
2023-01-03T11:53:34.479Z,101333.47
2023-01-03T11:59:11.461Z,101336.00
2023-01-03T12:05:18.239Z,101344.69
2023-01-03T12:10:52.094Z,101340.41
2023-01-03T12:16:24.247Z,101354.00
2023-01-03T12:22:05.156Z,101365.84
2023-01-03T12:27:38.868Z,101343.63
2023-01-03T12:33:12.629Z,101354.97
2023-01-03T12:38:41.877Z,101357.66
2023-01-03T12:44:12.508Z,101350.78
2023-01-03T12:50:02.955Z,101355.94
2023-01-03T12:55:54.871Z,101352.59
2023-01-03T13:01:35.924Z,101357.09
2023-01-03T13:07:21.678Z,101347.72
2023-01-03T13:12:51.145Z,101360.63
2023-01-03T13:18:22.076Z,101367.47
2023-01-03T13:23:57.638Z,101363.34
2023-01-03T13:29:45.773Z,101365.22
2023-01-03T13:35:19.996Z,101372.91
2023-01-03T13:41:16.700Z,101372.97
2023-01-03T13:46:32.588Z,101385.09
2023-01-03T13:51:58.841Z,101395.50
2023-01-03T13:57:50.536Z,101390.41
2023-01-03T14:03:24.611Z,101401.53
2023-01-03T14:09:11.304Z,101399.00
2023-01-03T14:14:39.947Z,101403.28
2023-01-03T14:20:13.501Z,101411.78
2023-01-03T14:25:40.704Z,101417.78
2023-01-03T14:31:06.310Z,101427.19
2023-01-03T14:36:29.088Z,101436.56
2023-01-03T14:41:51.097Z,101443.34
2023-01-03T14:47:17.103Z,101447.59
2023-01-03T14:52:41.494Z,101453.53
2023-01-03T14:58:23.228Z,101459.47
2023-01-03T15:03:46.994Z,101462.84
2023-01-03T15:09:21.554Z,101463.66
2023-01-03T15:14:43.455Z,101467.03
2023-01-03T15:20:08.641Z,101471.31
2023-01-03T15:25:37.820Z,101481.56
2023-01-03T15:31:27.886Z,101481.56
2023-01-03T15:37:21.927Z,101476.50
2023-01-03T15:42:46.762Z,101468.75
2023-01-03T15:48:18.105Z,101478.16
2023-01-03T15:53:44.104Z,101482.47
2023-01-03T15:59:09.039Z,101484.94
2023-01-03T16:04:31.158Z,101483.19
2023-01-03T16:09:53.039Z,101496.88
2023-01-03T16:15:20.998Z,101496.00
2023-01-03T16:20:43.087Z,101508.72
2023-01-03T16:26:05.320Z,101514.75
2023-01-03T16:31:30.764Z,101511.34
2023-01-03T16:36:53.053Z,101518.13
2023-01-03T16:42:15.096Z,101517.38
2023-01-03T16:47:37.056Z,101528.50
2023-01-03T16:52:58.936Z,101526.81
2023-01-03T16:58:20.837Z,101538.78
2023-01-03T17:03:42.808Z,101539.56
2023-01-03T17:09:22.386Z,101529.97
2023-01-03T17:14:44.334Z,101527.25
2023-01-03T17:20:20.039Z,101524.59
2023-01-03T17:25:41.917Z,101529.47
2023-01-03T17:31:03.893Z,101531.13
2023-01-03T17:36:30.275Z,101536.09
2023-01-03T17:41:53.498Z,101541.16
2023-01-03T17:47:15.347Z,101543.59
2023-01-03T17:52:38.472Z,101554.72
2023-01-03T17:58:04.434Z,101557.22
2023-01-03T18:03:26.424Z,101556.41
2023-01-03T18:08:48.580Z,101557.50
2023-01-03T18:14:15.759Z,101569.63
2023-01-03T18:19:37.636Z,101567.06
2023-01-03T18:24:59.597Z,101569.72
2023-01-03T18:30:21.686Z,101583.50
2023-01-03T18:35:44.011Z,101584.44
2023-01-03T18:41:06.433Z,101582.72
2023-01-03T18:46:29.561Z,101585.31
2023-01-03T18:51:53.377Z,101586.22
2023-01-03T18:57:15.281Z,101594.81
2023-01-03T19:02:37.346Z,101593.84
2023-01-03T19:07:59.367Z,101598.16
2023-01-03T19:13:30.558Z,101590.50
2023-01-03T19:18:53.285Z,101599.88
2023-01-03T19:24:38.894Z,101600.69
2023-01-03T19:30:04.351Z,101593.00
2023-01-03T19:35:27.176Z,101608.44
2023-01-03T19:40:49.800Z,101607.59
2023-01-03T19:46:16.858Z,101607.47
2023-01-03T19:51:38.843Z,101608.47
2023-01-03T19:57:01.427Z,101605.91
2023-01-03T20:02:32.333Z,101613.44
2023-01-03T20:07:54.338Z,101611.63
2023-01-03T20:13:22.566Z,101607.22
2023-01-03T20:18:44.602Z,101612.25
2023-01-03T20:24:07.091Z,101615.72
2023-01-03T20:29:28.975Z,101616.66
2023-01-03T20:34:50.876Z,101619.03
2023-01-03T20:40:21.696Z,101621.72
2023-01-03T20:45:44.192Z,101608.03
2023-01-03T20:51:06.172Z,101625.03
2023-01-03T20:56:28.821Z,101616.53
2023-01-03T21:01:51.087Z,101628.59
2023-01-03T21:07:30.326Z,101629.34
2023-01-03T21:12:52.240Z,101623.47
2023-01-03T21:18:14.782Z,101627.78
2023-01-03T21:23:36.642Z,101634.63
2023-01-03T21:28:59.627Z,101638.81
2023-01-03T21:34:21.646Z,101650.88
2023-01-03T21:39:43.588Z,101650.88
2023-01-03T21:45:05.841Z,101654.31
2023-01-03T21:50:29.025Z,101655.31
2023-01-03T21:55:50.972Z,101657.81
2023-01-03T22:01:15.968Z,101665.53
2023-01-03T22:06:38.254Z,101668.19
2023-01-03T22:12:00.160Z,101664.66
2023-01-03T22:17:22.026Z,101667.31
2023-01-03T22:22:44.773Z,101651.88
2023-01-03T22:28:06.640Z,101662.16
2023-01-03T22:33:28.554Z,101656.22
2023-01-03T22:38:52.643Z,101651.72
2023-01-03T22:44:14.503Z,101646.72
2023-01-03T22:49:36.901Z,101648.38
2023-01-03T22:54:59.195Z,101658.53
2023-01-03T23:00:21.111Z,101661.03
2023-01-03T23:05:42.937Z,101669.75
2023-01-03T23:11:14.223Z,101672.19
2023-01-03T23:16:36.192Z,101660.19
2023-01-03T23:21:58.103Z,101673.09
2023-01-03T23:27:20.034Z,101676.34
2023-01-03T23:32:41.956Z,101662.81
2023-01-03T23:38:03.801Z,101664.47
2023-01-03T23:43:25.865Z,101669.56
2023-01-03T23:48:48.605Z,101665.13
2023-01-03T23:54:10.985Z,101674.56
2023-01-03T23:59:32.812Z,101673.53
